sensor_id;sensor_type;location;lat;lon;timestamp;P1;durP1;ratioP1;P2;durP2;ratioP2
57323;SDS011;43160;51.008;18.248;2023-08-06T00:09:24;11.50;;;3.80;;
57323;SDS011;43160;51.008;18.248;2023-08-06T00:19:09;11.70;;;4.90;;
57323;SDS011;43160;51.008;18.248;2023-08-06T00:28:52;13.00;;;5.00;;
57323;SDS011;43160;51.008;18.248;2023-08-06T00:38:35;17.40;;;6.50;;
57323;SDS011;43160;51.008;18.248;2023-08-06T00:48:17;18.90;;;5.40;;
57323;SDS011;43160;51.008;18.248;2023-08-06T00:58:01;12.40;;;5.50;;
57323;SDS011;43160;51.008;18.248;2023-08-06T01:17:51;13.80;;;5.70;;
57323;SDS011;43160;51.008;18.248;2023-08-06T01:27:38;23.60;;;9.80;;
57323;SDS011;43160;51.008;18.248;2023-08-06T01:37:33;19.40;;;7.60;;
57323;SDS011;43160;51.008;18.248;2023-08-06T01:47:17;19.30;;;6.50;;
57323;SDS011;43160;51.008;18.248;2023-08-06T01:57:00;15.60;;;6.40;;
57323;SDS011;43160;51.008;18.248;2023-08-06T02:06:44;20.80;;;7.60;;
57323;SDS011;43160;51.008;18.248;2023-08-06T02:16:28;32.40;;;9.90;;
57323;SDS011;43160;51.008;18.248;2023-08-06T02:26:11;18.90;;;9.90;;
57323;SDS011;43160;51.008;18.248;2023-08-06T02:35:58;16.40;;;9.00;;
57323;SDS011;43160;51.008;18.248;2023-08-06T02:45:44;49.50;;;11.70;;
57323;SDS011;43160;51.008;18.248;2023-08-06T02:55:34;18.10;;;6.90;;
57323;SDS011;43160;51.008;18.248;2023-08-06T03:05:19;29.80;;;8.60;;
57323;SDS011;43160;51.008;18.248;2023-08-06T03:15:07;35.10;;;9.10;;
57323;SDS011;43160;51.008;18.248;2023-08-06T03:24:50;22.00;;;9.10;;
57323;SDS011;43160;51.008;18.248;2023-08-06T03:34:34;26.60;;;9.80;;
57323;SDS011;43160;51.008;18.248;2023-08-06T03:44:19;21.90;;;9.00;;
57323;SDS011;43160;51.008;18.248;2023-08-06T03:54:02;23.40;;;9.50;;
57323;SDS011;43160;51.008;18.248;2023-08-06T04:03:45;28.10;;;10.60;;
57323;SDS011;43160;51.008;18.248;2023-08-06T04:13:29;21.90;;;8.20;;
57323;SDS011;43160;51.008;18.248;2023-08-06T04:23:14;23.70;;;9.80;;
57323;SDS011;43160;51.008;18.248;2023-08-06T04:32:59;22.90;;;9.40;;
57323;SDS011;43160;51.008;18.248;2023-08-06T04:42:43;26.10;;;11.20;;
57323;SDS011;43160;51.008;18.248;2023-08-06T04:52:28;22.70;;;10.00;;
57323;SDS011;43160;51.008;18.248;2023-08-06T05:02:14;21.90;;;9.80;;
57323;SDS011;43160;51.008;18.248;2023-08-06T05:12:00;21.10;;;9.10;;
57323;SDS011;43160;51.008;18.248;2023-08-06T05:21:43;21.90;;;9.30;;
57323;SDS011;43160;51.008;18.248;2023-08-06T05:31:27;21.30;;;8.90;;
57323;SDS011;43160;51.008;18.248;2023-08-06T05:41:12;16.60;;;7.90;;
57323;SDS011;43160;51.008;18.248;2023-08-06T05:50:57;15.10;;;7.30;;
57323;SDS011;43160;51.008;18.248;2023-08-06T06:00:41;19.10;;;8.90;;
57323;SDS011;43160;51.008;18.248;2023-08-06T06:10:25;16.60;;;7.30;;
57323;SDS011;43160;51.008;18.248;2023-08-06T06:20:08;15.50;;;7.60;;
57323;SDS011;43160;51.008;18.248;2023-08-06T06:29:53;16.80;;;5.80;;
57323;SDS011;43160;51.008;18.248;2023-08-06T06:34:47;27.20;;;11.20;;
57323;SDS011;43160;51.008;18.248;2023-08-06T06:44:31;12.10;;;4.80;;
57323;SDS011;43160;51.008;18.248;2023-08-06T06:54:16;11.90;;;3.30;;
57323;SDS011;43160;51.008;18.248;2023-08-06T07:03:59;5.00;;;1.60;;
57323;SDS011;43160;51.008;18.248;2023-08-06T07:13:49;6.10;;;1.50;;
57323;SDS011;43160;51.008;18.248;2023-08-06T07:23:34;5.90;;;1.40;;
57323;SDS011;43160;51.008;18.248;2023-08-06T07:33:17;4.80;;;1.00;;
57323;SDS011;43160;51.008;18.248;2023-08-06T07:43:03;0.70;;;0.70;;
57323;SDS011;43160;51.008;18.248;2023-08-06T07:52:49;1.00;;;0.90;;
57323;SDS011;43160;51.008;18.248;2023-08-06T08:02:35;1.00;;;0.60;;
57323;SDS011;43160;51.008;18.248;2023-08-06T08:12:22;0.80;;;0.80;;
57323;SDS011;43160;51.008;18.248;2023-08-06T08:22:06;5.60;;;1.70;;
57323;SDS011;43160;51.008;18.248;2023-08-06T08:31:50;3.00;;;1.10;;
57323;SDS011;43160;51.008;18.248;2023-08-06T08:41:41;4.40;;;1.30;;
57323;SDS011;43160;51.008;18.248;2023-08-06T08:51:30;7.60;;;1.40;;
57323;SDS011;43160;51.008;18.248;2023-08-06T09:01:15;0.20;;;0.20;;
57323;SDS011;43160;51.008;18.248;2023-08-06T09:11:05;1.40;;;1.30;;
57323;SDS011;43160;51.008;18.248;2023-08-06T09:16:01;4.10;;;1.30;;
57323;SDS011;43160;51.008;18.248;2023-08-06T09:25:46;2.80;;;0.90;;
57323;SDS011;43160;51.008;18.248;2023-08-06T09:35:41;3.00;;;1.20;;
57323;SDS011;43160;51.008;18.248;2023-08-06T09:45:30;0.90;;;0.90;;
57323;SDS011;43160;51.008;18.248;2023-08-06T09:55:20;7.30;;;1.00;;
57323;SDS011;43160;51.008;18.248;2023-08-06T10:05:06;3.10;;;0.80;;
57323;SDS011;43160;51.008;18.248;2023-08-06T10:14:51;3.80;;;1.20;;
57323;SDS011;43160;51.008;18.248;2023-08-06T10:24:46;0.60;;;0.60;;
57323;SDS011;43160;51.008;18.248;2023-08-06T10:55:01;3.90;;;1.20;;
57323;SDS011;43160;51.008;18.248;2023-08-06T11:04:45;0.30;;;0.30;;
57323;SDS011;43160;51.008;18.248;2023-08-06T11:14:30;1.50;;;0.90;;
57323;SDS011;43160;51.008;18.248;2023-08-06T11:24:15;3.00;;;1.00;;
57323;SDS011;43160;51.008;18.248;2023-08-06T11:33:58;1.90;;;0.80;;
57323;SDS011;43160;51.008;18.248;2023-08-06T11:43:48;1.10;;;1.00;;
57323;SDS011;43160;51.008;18.248;2023-08-06T11:53:51;7.10;;;1.80;;
57323;SDS011;43160;51.008;18.248;2023-08-06T12:03:39;4.60;;;1.90;;
57323;SDS011;43160;51.008;18.248;2023-08-06T12:13:24;10.10;;;2.80;;
57323;SDS011;43160;51.008;18.248;2023-08-06T12:23:10;9.30;;;2.20;;
57323;SDS011;43160;51.008;18.248;2023-08-06T12:32:53;1.50;;;1.30;;
57323;SDS011;43160;51.008;18.248;2023-08-06T12:42:37;14.80;;;2.70;;
57323;SDS011;43160;51.008;18.248;2023-08-06T12:52:20;6.30;;;2.10;;
57323;SDS011;43160;51.008;18.248;2023-08-06T13:02:03;8.00;;;2.10;;
57323;SDS011;43160;51.008;18.248;2023-08-06T13:11:47;4.60;;;1.50;;
57323;SDS011;43160;51.008;18.248;2023-08-06T13:31:18;1.40;;;1.10;;
57323;SDS011;43160;51.008;18.248;2023-08-06T13:41:03;7.30;;;1.60;;
57323;SDS011;43160;51.008;18.248;2023-08-06T13:50:48;0.40;;;0.40;;
57323;SDS011;43160;51.008;18.248;2023-08-06T14:00:32;0.50;;;0.50;;
57323;SDS011;43160;51.008;18.248;2023-08-06T14:10:16;7.50;;;2.20;;
57323;SDS011;43160;51.008;18.248;2023-08-06T14:20:01;3.00;;;1.20;;
57323;SDS011;43160;51.008;18.248;2023-08-06T14:29:49;3.70;;;1.40;;
57323;SDS011;43160;51.008;18.248;2023-08-06T14:39:35;0.50;;;0.50;;
57323;SDS011;43160;51.008;18.248;2023-08-06T14:49:18;2.70;;;1.50;;
57323;SDS011;43160;51.008;18.248;2023-08-06T14:59:02;6.70;;;1.50;;
57323;SDS011;43160;51.008;18.248;2023-08-06T15:08:46;4.60;;;1.40;;
57323;SDS011;43160;51.008;18.248;2023-08-06T15:18:30;1.30;;;1.30;;
57323;SDS011;43160;51.008;18.248;2023-08-06T15:28:15;0.70;;;0.70;;
57323;SDS011;43160;51.008;18.248;2023-08-06T15:38:01;8.30;;;1.80;;
57323;SDS011;43160;51.008;18.248;2023-08-06T15:47:44;4.60;;;1.50;;
57323;SDS011;43160;51.008;18.248;2023-08-06T15:57:31;3.50;;;1.60;;
57323;SDS011;43160;51.008;18.248;2023-08-06T16:07:16;8.90;;;2.10;;
57323;SDS011;43160;51.008;18.248;2023-08-06T16:17:00;2.70;;;1.00;;
57323;SDS011;43160;51.008;18.248;2023-08-06T16:26:44;4.10;;;1.40;;
57323;SDS011;43160;51.008;18.248;2023-08-06T16:36:27;9.20;;;2.80;;
57323;SDS011;43160;51.008;18.248;2023-08-06T16:46:10;8.30;;;1.90;;
57323;SDS011;43160;51.008;18.248;2023-08-06T16:55:54;13.40;;;3.00;;
57323;SDS011;43160;51.008;18.248;2023-08-06T17:05:40;10.00;;;2.50;;
57323;SDS011;43160;51.008;18.248;2023-08-06T17:15:26;8.70;;;2.80;;
57323;SDS011;43160;51.008;18.248;2023-08-06T17:25:08;3.10;;;1.70;;
57323;SDS011;43160;51.008;18.248;2023-08-06T17:34:52;6.00;;;1.70;;
57323;SDS011;43160;51.008;18.248;2023-08-06T17:44:36;8.00;;;2.00;;
57323;SDS011;43160;51.008;18.248;2023-08-06T17:54:21;7.50;;;2.20;;
57323;SDS011;43160;51.008;18.248;2023-08-06T18:04:04;9.90;;;2.20;;
57323;SDS011;43160;51.008;18.248;2023-08-06T18:13:47;8.40;;;2.30;;
57323;SDS011;43160;51.008;18.248;2023-08-06T18:34:36;14.20;;;4.20;;
57323;SDS011;43160;51.008;18.248;2023-08-06T18:44:20;14.40;;;4.50;;
57323;SDS011;43160;51.008;18.248;2023-08-06T18:54:03;12.10;;;3.80;;
57323;SDS011;43160;51.008;18.248;2023-08-06T19:03:46;9.80;;;2.70;;
57323;SDS011;43160;51.008;18.248;2023-08-06T19:13:31;8.60;;;3.80;;
57323;SDS011;43160;51.008;18.248;2023-08-06T19:23:14;12.80;;;5.20;;
57323;SDS011;43160;51.008;18.248;2023-08-06T19:33:11;11.70;;;3.30;;
57323;SDS011;43160;51.008;18.248;2023-08-06T19:43:05;14.80;;;2.90;;
57323;SDS011;43160;51.008;18.248;2023-08-06T19:52:49;10.70;;;2.40;;
57323;SDS011;43160;51.008;18.248;2023-08-06T20:02:32;10.90;;;3.20;;
57323;SDS011;43160;51.008;18.248;2023-08-06T20:12:15;10.10;;;2.80;;
57323;SDS011;43160;51.008;18.248;2023-08-06T20:21:58;5.50;;;2.00;;
57323;SDS011;43160;51.008;18.248;2023-08-06T20:31:41;8.40;;;2.50;;
57323;SDS011;43160;51.008;18.248;2023-08-06T20:41:24;7.70;;;2.60;;
57323;SDS011;43160;51.008;18.248;2023-08-06T20:51:07;3.80;;;1.30;;
57323;SDS011;43160;51.008;18.248;2023-08-06T21:00:54;14.30;;;4.10;;
57323;SDS011;43160;51.008;18.248;2023-08-06T21:11:02;10.90;;;3.60;;
57323;SDS011;43160;51.008;18.248;2023-08-06T21:20:51;13.80;;;3.10;;
57323;SDS011;43160;51.008;18.248;2023-08-06T21:30:52;6.10;;;2.20;;
57323;SDS011;43160;51.008;18.248;2023-08-06T21:40:36;7.50;;;2.30;;
57323;SDS011;43160;51.008;18.248;2023-08-06T21:50:20;9.80;;;3.60;;
57323;SDS011;43160;51.008;18.248;2023-08-06T22:00:04;21.90;;;4.80;;
57323;SDS011;43160;51.008;18.248;2023-08-06T22:09:50;10.40;;;4.10;;
57323;SDS011;43160;51.008;18.248;2023-08-06T22:19:33;9.80;;;3.60;;
57323;SDS011;43160;51.008;18.248;2023-08-06T22:29:16;9.10;;;2.70;;
57323;SDS011;43160;51.008;18.248;2023-08-06T22:38:59;8.70;;;3.50;;
57323;SDS011;43160;51.008;18.248;2023-08-06T22:48:43;11.40;;;3.20;;
57323;SDS011;43160;51.008;18.248;2023-08-06T22:58:26;11.90;;;3.90;;
57323;SDS011;43160;51.008;18.248;2023-08-06T23:08:11;10.10;;;3.70;;
57323;SDS011;43160;51.008;18.248;2023-08-06T23:17:55;7.30;;;2.90;;
57323;SDS011;43160;51.008;18.248;2023-08-06T23:27:39;11.70;;;4.50;;
57323;SDS011;43160;51.008;18.248;2023-08-06T23:37:23;10.00;;;3.40;;
57323;SDS011;43160;51.008;18.248;2023-08-06T23:47:12;11.80;;;4.90;;
57323;SDS011;43160;51.008;18.248;2023-08-06T23:56:55;10.20;;;3.50;;
